Velence, Italy

2017 Január 24 04:06 PM (CET időzóna) (GMT +0100)
Tessera | | Change Station
Active Advisory: >

Elev 20 ft 45.50 °N, 12.33 °E | Updated 16 minutes ago

Clear
Derült
52 °F
Hőérzet 52 °F
N
2
Szél: változó Szél: from változó

Ma
High -- | Low -- °F
--% Csapadék valószínű
Tegnapi
High -- | Low -- °F
Precip. -- hvlyk.
Légnyomás 30.04 hvlyk.
Látótávolság -9999.0 mérföld
Felhők
Harmatpont 30 °F
Páratartalom 44%
Rainfall 0.00 hvlyk.
Hóréteg vastagsága Not available.
7:40 AM 5:05 PM
Fogyó holdsarló, 11% visible
METAR LIPZ 241450Z VRB02KT CAVOK 11/M01 Q1017 NOSIG
Légnyomás 30.04 hvlyk.
Látótávolság -9999.0 mérföld
Felhők
Harmatpont 30 °F
Páratartalom 44%
Rainfall 0.00 hvlyk.
Hóréteg vastagsága Not available.
7:40 AM 5:05 PM
Fogyó holdsarló, 11% visible
METAR LIPZ 241450Z VRB02KT CAVOK 11/M01 Q1017 NOSIG

Get Your Daily Forecast Email!

Thanks for signing up!

Be on the lookout for a verification email in your inbox.

You'll start receiving the daily forecast at 8 AM.

×

10-Day Weather Forecast

×

Almanac

Csillagászat

Jan. 24, 2017 Kel Nyugszik
Tényleges idő
Civil alkony
Tengerészeti alkony
Csillagászati alkony
Hold
Látható fény időtartama
A nap hossza
Tomorrow will be .
, % of the Moon is Illuminated

Today's Extremes

Country Highs Country Lows

Community

WunderPhotos

Upload Photos

1,962,540 Fotók feltöltve.

WunderBlog® & News

Nearby

A levegő minősége

  A levegő minősége AQ Index Szennyezőanyag
Not available.

Hóréteg vastagsága

Station Depth Elevation

Earthquake Activity

város Distance Mag. Time & Date
Minimum magnitude displayed is 2.5.

Coastal Water Temperatures

Hely Hőmérséklet

Stations

Közeli meteorológiai állomások

Station Location Hőm. Hőérzet Harmatpont Páratartalom Szél: Precip. Elev Frissítve Type